Time;durP1;ratioP1;P1;durP2;ratioP2;P2;SDS_P1;SDS_P2;PMS_P1;PMS_P2;Temp;Humidity;BMP_temperature;BMP_pressure;BME280_temperature;BME280_humidity;BME280_pressure;Samples;Min_cycle;Max_cycle;Signal;HPM_P1;HPM_P2
2021/12/21 00:00:12;;;;;;;2.22;1.63;;;;;;;-12.93;63.05;98496.81;4851549;29;20226;-56
2021/12/21 00:02:42;;;;;;;3.00;2.05;;;;;;;-13.05;62.21;98492.91;4851439;29;20030;-57
2021/12/21 00:05:15;;;;;;;3.20;2.10;;;;;;;-12.96;63.11;98485.03;4851546;29;20033;-57
2021/12/21 00:07:41;;;;;;;2.45;2.05;;;;;;;-12.94;62.63;98495.09;4850242;29;20042;-56
2021/12/21 00:10:07;;;;;;;3.28;2.30;;;;;;;-12.87;62.90;98497.09;4850254;29;20075;-55
2021/12/21 00:12:35;;;;;;;2.70;1.90;;;;;;;-12.90;61.73;98501.94;4835092;29;20378;-56
2021/12/21 00:15:05;;;;;;;3.67;2.10;;;;;;;-12.87;61.61;98493.00;4851402;29;20053;-56
2021/12/21 00:20:47;;;;;;;3.58;2.08;;;;;;;-12.93;62.96;98490.16;4851339;29;20056;-56
2021/12/21 00:23:46;;;;;;;1.95;1.77;;;;;;;-12.82;62.28;98503.19;4833086;29;20368;-55
2021/12/21 00:38:29;;;;;;;4.95;3.22;;;;;;;-12.77;63.66;98490.97;4813192;29;20110;-56
2021/12/21 00:40:55;;;;;;;4.22;3.08;;;;;;;-12.79;63.62;98497.53;4813363;29;20027;-56
2021/12/21 00:43:21;;;;;;;3.20;2.38;;;;;;;-12.74;63.52;98504.44;4814040;29;20031;-56
2021/12/21 00:45:46;;;;;;;3.35;2.50;;;;;;;-12.80;62.85;98490.81;4815130;29;20042;-56
2021/12/21 00:48:14;;;;;;;3.75;2.78;;;;;;;-12.75;63.19;98511.81;4813967;29;20030;-56
2021/12/21 00:50:39;;;;;;;3.38;2.50;;;;;;;-12.81;63.16;98506.53;4815207;29;20034;-56
2021/12/21 00:53:05;;;;;;;4.50;2.50;;;;;;;-12.93;62.58;98497.66;4813074;29;20337;-56
2021/12/21 00:55:31;;;;;;;3.53;2.60;;;;;;;-13.42;61.58;98502.59;4828070;29;20055;-56
2021/12/21 00:57:56;;;;;;;3.08;2.10;;;;;;;-13.05;63.56;98517.81;4815624;29;20030;-57
2021/12/21 01:00:23;;;;;;;3.47;2.40;;;;;;;-12.91;62.61;98518.53;4817918;29;20043;-56
2021/12/21 01:02:49;;;;;;;2.40;1.90;;;;;;;-12.87;62.99;98514.56;4817896;29;20034;-56
2021/12/21 01:05:31;;;;;;;2.78;1.98;;;;;;;-12.97;62.12;98497.41;4817788;29;20045;-57
2021/12/21 01:08:00;;;;;;;2.90;2.05;;;;;;;-12.97;62.36;98502.41;4817755;29;20277;-56
2021/12/21 01:10:54;;;;;;;3.30;2.05;;;;;;;-12.95;62.22;98513.28;4815059;29;20374;-57
2021/12/21 01:13:25;;;;;;;3.20;2.10;;;;;;;-12.90;63.38;98529.34;4817187;29;20053;-55
2021/12/21 01:18:51;;;;;;;4.55;2.25;;;;;;;-12.96;62.90;98507.47;4817340;29;20031;-55
2021/12/21 01:21:18;;;;;;;3.35;1.98;;;;;;;-12.99;62.31;98508.94;4817326;29;20049;-56
2021/12/21 01:29:10;;;;;;;3.35;2.10;;;;;;;-12.99;62.05;98533.88;4817405;29;20267;-57
2021/12/21 01:36:48;;;;;;;2.33;1.73;;;;;;;-13.31;61.94;98528.84;4826067;29;20058;-56
2021/12/21 01:42:07;;;;;;;2.97;1.98;;;;;;;-13.26;61.96;98531.63;4852237;29;20026;-55
2021/12/21 01:49:34;;;;;;;2.80;1.75;;;;;;;-13.39;62.37;98522.66;4853552;29;20382;-56
2021/12/21 01:50:05;;;;;;;2.35;1.73;;;;;;;-13.25;62.74;98538.28;4852204;29;20037;-56
2021/12/21 01:52:31;;;;;;;2.08;1.48;;;;;;;-13.49;62.26;98526.28;4853275;29;20037;-56
2021/12/21 01:54:56;;;;;;;2.30;1.50;;;;;;;-13.79;61.37;98478.22;4853442;29;20053;-57
2021/12/21 01:57:23;;;;;;;4.03;2.00;;;;;;;-13.25;62.30;98533.31;4837003;29;20122;-57
2021/12/21 01:59:49;;;;;;;2.33;1.80;;;;;;;-13.43;63.01;98528.25;4852249;29;20038;-57
2021/12/21 02:02:18;;;;;;;2.22;1.85;;;;;;;-13.73;61.95;98463.59;4852968;29;20041;-56
2021/12/21 02:04:44;;;;;;;3.00;1.70;;;;;;;-13.22;62.23;98543.47;4852696;29;20053;-56
2021/12/21 02:07:10;;;;;;;2.78;1.77;;;;;;;-13.17;62.46;98544.53;4835202;29;20227;-55
2021/12/21 02:09:37;;;;;;;3.78;2.13;;;;;;;-13.43;61.24;98528.25;4852875;29;20329;-57
2021/12/21 02:12:07;;;;;;;3.05;1.90;;;;;;;-13.20;61.76;98557.69;4853094;29;20030;-57
2021/12/21 02:14:34;;;;;;;3.10;1.88;;;;;;;-13.08;62.82;98541.69;4853167;29;20051;-56
2021/12/21 02:18:06;;;;;;;2.35;1.70;;;;;;;-13.12;63.34;98539.81;4837300;29;20195;-57
2021/12/21 02:19:59;;;;;;;2.38;1.60;;;;;;;-13.20;62.99;98547.72;4842499;29;20085;-57
2021/12/21 02:22:27;;;;;;;2.25;1.80;;;;;;;-13.26;62.34;98556.53;4851450;29;20038;-55
2021/12/21 02:25:20;;;;;;;2.65;1.77;;;;;;;-13.21;63.13;98563.47;4852485;29;20029;-56
2021/12/21 02:27:56;;;;;;;;;;;;;;;-13.19;62.42;98564.38;4851832;29;20045;-56
2021/12/21 02:30:22;;;;;;;3.08;1.40;;;;;;;-13.23;62.65;98561.66;4851588;29;19924;-56
2021/12/21 02:32:48;;;;;;;2.35;1.70;;;;;;;-13.36;63.75;98550.22;4852811;29;20800;-56
2021/12/21 02:35:14;;;;;;;2.30;1.65;;;;;;;-13.23;63.61;98574.13;4852392;29;20067;-56
2021/12/21 02:37:40;;;;;;;2.63;1.70;;;;;;;-13.18;63.40;98560.28;4852318;29;20046;-56
2021/12/21 02:40:06;;;;;;;3.22;2.00;;;;;;;-13.02;62.74;98574.41;4852629;29;20041;-56
2021/12/21 02:42:32;;;;;;;2.35;1.88;;;;;;;-12.99;63.72;98577.06;4852542;29;20057;-56
2021/12/21 02:44:58;;;;;;;3.40;2.00;;;;;;;-13.26;63.02;98576.44;4852275;29;20334;-56
2021/12/21 02:47:24;;;;;;;3.60;2.00;;;;;;;-13.47;61.45;98578.66;4852528;29;20062;-57
2021/12/21 02:49:49;;;;;;;2.17;1.70;;;;;;;-13.60;61.09;98577.09;4853261;29;20033;-56
2021/12/21 02:52:16;;;;;;;2.33;1.85;;;;;;;-13.47;62.40;98584.47;4852331;29;20026;-57
2021/12/21 02:54:41;;;;;;;1.98;1.73;;;;;;;-13.48;60.89;98581.91;4852467;29;20207;-57
2021/12/21 02:57:07;;;;;;;2.08;1.73;;;;;;;-13.56;61.21;98588.97;4852288;29;20092;-57
2021/12/21 02:59:32;;;;;;;1.88;1.60;;;;;;;-13.59;61.16;98591.28;4852367;29;20314;-56
2021/12/21 03:01:58;;;;;;;2.22;1.58;;;;;;;-13.67;61.05;98595.81;4852147;29;20037;-56
2021/12/21 03:04:24;;;;;;;1.98;1.73;;;;;;;-13.55;60.46;98595.63;4853356;29;20038;-57
2021/12/21 03:12:13;;;;;;;2.45;1.30;;;;;;;-13.72;61.94;98593.06;4835564;29;20062;-56
2021/12/21 03:14:39;;;;;;;2.92;1.65;;;;;;;-13.67;62.38;98593.31;4863704;29;20033;-56
2021/12/21 03:17:06;;;;;;;2.72;1.50;;;;;;;-13.68;61.25;98598.22;4854800;29;20025;-56
2021/12/21 03:19:32;;;;;;;2.42;1.60;;;;;;;-13.53;61.70;98603.22;4845909;29;20315;-56
2021/12/21 03:21:57;;;;;;;2.40;1.58;;;;;;;-13.71;61.21;98591.44;4850870;29;20048;-56
2021/12/21 03:24:23;;;;;;;3.97;1.60;;;;;;;-13.73;61.60;98590.50;4834767;29;20045;-55
2021/12/21 03:26:50;;;;;;;3.13;1.92;;;;;;;-13.58;61.51;98597.94;4851197;29;20091;-56
2021/12/21 03:29:16;;;;;;;2.70;1.60;;;;;;;-13.58;60.55;98608.78;4835118;29;20033;-56
2021/12/21 03:31:42;;;;;;;1.83;1.63;;;;;;;-13.54;61.14;98614.78;4851286;29;20045;-56
2021/12/21 03:34:08;;;;;;;38.10;29.85;;;;;;;-13.52;60.63;98608.28;4834813;29;20053;-55
2021/12/21 03:36:34;;;;;;;3.72;2.10;;;;;;;-13.63;60.06;98606.81;4851139;29;20069;-56
2021/12/21 03:39:08;;;;;;;2.65;2.08;;;;;;;-13.49;61.62;98605.94;4849809;29;20154;-56
2021/12/21 03:41:35;;;;;;;2.78;1.85;;;;;;;-13.47;61.45;98621.81;4819474;29;20071;-56
2021/12/21 03:44:01;;;;;;;3.50;2.10;;;;;;;-13.59;60.12;98607.06;4851290;29;20085;-56
2021/12/21 03:46:29;;;;;;;2.42;1.75;;;;;;;-13.74;59.90;98612.00;4850842;29;20049;-56
2021/12/21 03:48:55;;;;;;;2.92;2.20;;;;;;;-13.52;62.94;98607.38;4851061;29;20026;-56
2021/12/21 03:51:21;;;;;;;2.63;1.65;;;;;;;-13.59;62.12;98602.09;4851109;29;20276;-55
2021/12/21 03:53:48;;;;;;;2.83;1.85;;;;;;;-13.57;60.37;98612.97;4850486;29;20040;-56
2021/12/21 03:58:58;;;;;;;5.25;1.92;;;;;;;-13.49;61.22;98602.56;4837878;29;20075;-57
2021/12/21 04:01:24;;;;;;;3.17;1.85;;;;;;;-13.82;61.29;98605.78;4850913;29;20045;-56
2021/12/21 04:03:49;;;;;;;2.65;1.80;;;;;;;-13.62;60.79;98615.97;4851320;29;20065;-56
2021/12/21 04:06:15;;;;;;;2.63;1.77;;;;;;;-13.65;61.55;98619.16;4834704;29;20042;-56
2021/12/21 04:08:41;;;;;;;2.20;1.80;;;;;;;-13.83;61.29;98640.53;4851957;29;20268;-56
2021/12/21 04:11:06;;;;;;;3.55;2.22;;;;;;;-13.63;62.35;98629.22;4851855;29;20038;-55
2021/12/21 04:13:32;;;;;;;2.65;1.45;;;;;;;-13.84;60.25;98619.75;4850941;29;20021;-54
2021/12/21 04:16:00;;;;;;;2.20;1.40;;;;;;;-13.69;60.14;98623.88;4849710;29;20056;-56
2021/12/21 04:18:26;;;;;;;2.47;1.55;;;;;;;-13.66;60.42;98621.56;4849328;29;20032;-57
2021/12/21 04:20:52;;;;;;;1.55;1.40;;;;;;;-13.83;61.04;98635.53;4850591;29;20144;-56
2021/12/21 04:23:18;;;;;;;2.67;1.63;;;;;;;-13.69;62.83;98628.84;4834380;29;20146;-56
2021/12/21 04:25:44;;;;;;;3.35;2.40;;;;;;;-13.79;60.04;98632.47;4834408;29;20213;-56
2021/12/21 04:28:10;;;;;;;2.83;2.15;;;;;;;-13.93;60.13;98631.66;4849868;29;20038;-56
2021/12/21 04:30:35;;;;;;;2.60;1.75;;;;;;;-13.86;59.91;98650.25;4849832;29;20042;-56
2021/12/21 04:33:01;;;;;;;3.58;1.83;;;;;;;-13.93;60.44;98647.44;4819013;29;20033;-55
2021/12/21 04:35:27;;;;;;;2.95;1.83;;;;;;;-13.81;60.86;98631.50;4850165;29;20430;-55
2021/12/21 04:38:00;;;;;;;2.88;1.85;;;;;;;-14.01;59.94;98590.56;4850339;29;20059;-56
2021/12/21 04:40:39;;;;;;;3.40;2.13;;;;;;;-13.83;60.60;98648.81;4851286;29;20029;-56
2021/12/21 04:43:05;;;;;;;3.85;1.73;;;;;;;-13.75;59.30;98655.09;4833962;29;20037;-56
2021/12/21 04:45:31;;;;;;;3.25;2.08;;;;;;;-13.93;60.52;98635.00;4850183;29;20098;-55
2021/12/21 04:47:57;;;;;;;2.88;1.98;;;;;;;-13.83;60.36;98650.47;4852078;29;20030;-55
2021/12/21 04:50:23;;;;;;;2.90;2.10;;;;;;;-13.81;60.25;98651.41;4850105;29;20049;-56
2021/12/21 04:52:49;;;;;;;2.55;1.73;;;;;;;-13.73;59.78;98645.25;4850402;29;20086;-56
2021/12/21 04:55:15;;;;;;;2.67;2.08;;;;;;;-13.57;59.92;98647.81;4848835;29;20053;-56
2021/12/21 04:57:41;;;;;;;4.60;2.38;;;;;;;-13.71;59.71;98643.69;4850826;29;20334;-56
2021/12/21 05:00:08;;;;;;;3.20;1.90;;;;;;;-13.89;61.43;98653.47;4850427;29;20097;-56
2021/12/21 05:02:34;;;;;;;2.25;1.90;;;;;;;-13.85;60.72;98659.47;4833928;29;20034;-56
2021/12/21 05:05:00;;;;;;;4.60;2.10;;;;;;;-13.85;62.16;98666.91;4850511;29;20034;-56
2021/12/21 05:07:28;;;;;;;2.88;1.98;;;;;;;-13.65;63.18;98673.03;4850278;29;20034;-56
2021/12/21 05:09:58;;;;;;;3.25;1.75;;;;;;;-13.71;61.21;98653.63;4850470;29;20041;-56
2021/12/21 05:12:24;;;;;;;2.85;1.90;;;;;;;-13.61;61.21;98674.94;4850042;29;20065;-56
2021/12/21 05:14:50;;;;;;;3.03;1.90;;;;;;;-14.09;62.13;98615.84;4849877;29;20245;-55
2021/12/21 05:17:16;;;;;;;3.47;2.00;;;;;;;-13.62;63.31;98690.63;4848910;29;20096;-56
2021/12/21 05:19:42;;;;;;;3.90;2.35;;;;;;;-13.49;63.93;98703.03;4833612;29;20037;-55
2021/12/21 05:22:08;;;;;;;3.42;2.10;;;;;;;-13.52;64.34;98692.91;4850415;29;20315;-56
2021/12/21 05:24:33;;;;;;;4.25;2.35;;;;;;;-13.50;63.59;98686.38;4850354;29;20038;-55
2021/12/21 05:26:59;;;;;;;4.60;2.30;;;;;;;-13.44;63.36;98690.84;4850861;29;20252;-54
2021/12/21 05:29:26;;;;;;;4.18;2.28;;;;;;;-13.67;62.75;98692.00;4850206;29;20259;-57
2021/12/21 05:31:52;;;;;;;6.30;2.17;;;;;;;-13.68;61.90;98691.13;4850059;29;20325;-57
2021/12/21 05:34:18;;;;;;;2.95;1.70;;;;;;;-13.47;63.54;98701.47;4850139;29;20033;-56
2021/12/21 05:36:43;;;;;;;2.53;2.10;;;;;;;-13.51;61.64;98682.16;4850068;29;20045;-57
2021/12/21 05:39:18;;;;;;;2.92;2.03;;;;;;;-13.55;62.35;98687.72;4847677;29;20026;-56
2021/12/21 05:41:55;;;;;;;3.22;2.00;;;;;;;-13.59;61.94;98706.63;4849986;29;20085;-57
2021/12/21 05:44:25;;;;;;;3.75;2.08;;;;;;;-13.75;61.09;98680.00;4851474;29;20089;-58
2021/12/21 05:46:53;;;;;;;3.38;2.40;;;;;;;-14.09;61.30;98618.34;4853649;29;20033;-57
2021/12/21 05:49:19;;;;;;;5.43;2.58;;;;;;;-13.73;62.35;98695.00;4843335;29;20040;-57
2021/12/21 05:51:46;;;;;;;3.17;1.63;;;;;;;-13.76;61.04;98703.16;4835922;29;20030;-57
2021/12/21 05:54:13;;;;;;;2.33;1.80;;;;;;;-13.72;61.74;98695.09;4853209;29;20034;-57
2021/12/21 05:56:39;;;;;;;3.08;1.90;;;;;;;-13.80;61.77;98705.38;4853720;29;20109;-56
2021/12/21 05:59:05;;;;;;;4.10;2.15;;;;;;;-13.78;62.35;98692.25;4836244;29;20042;-58
2021/12/21 06:01:32;;;;;;;6.88;2.35;;;;;;;-13.55;63.94;98705.16;4853658;29;20033;-57
2021/12/21 06:03:57;;;;;;;4.50;1.65;;;;;;;-13.51;61.75;98713.66;4835930;29;20074;-56
2021/12/21 06:06:23;;;;;;;3.08;2.00;;;;;;;-13.70;62.26;98711.75;4852489;29;20034;-56
2021/12/21 06:08:51;;;;;;;2.88;2.08;;;;;;;-13.54;62.69;98719.31;4852723;29;20063;-57
2021/12/21 06:11:16;;;;;;;4.90;2.13;;;;;;;-13.51;61.96;98704.56;4852051;29;20033;-56
2021/12/21 06:16:27;;;;;;;4.03;2.30;;;;;;;-13.62;60.76;98720.50;4852616;29;20026;-58
2021/12/21 06:27:05;;;;;;;3.83;2.15;;;;;;;-13.72;61.65;98737.41;4851444;29;20050;-57
2021/12/21 06:29:31;;;;;;;4.22;2.40;;;;;;;-13.66;61.55;98733.56;4852184;29;20029;-57
2021/12/21 06:31:56;;;;;;;3.15;2.00;;;;;;;-13.67;63.02;98732.69;4851093;29;20037;-57
2021/12/21 06:34:23;;;;;;;3.80;2.25;;;;;;;-13.56;63.52;98728.34;4850972;29;20030;-58
2021/12/21 06:36:49;;;;;;;3.78;1.90;;;;;;;-13.47;61.75;98738.81;4862748;29;20050;-57
2021/12/21 06:39:15;;;;;;;5.45;2.75;;;;;;;-13.47;62.08;98728.84;4826779;29;20125;-58
2021/12/21 06:41:41;;;;;;;2.78;2.00;;;;;;;-13.47;62.68;98728.84;4852319;29;20326;-58
2021/12/21 06:44:09;;;;;;;4.80;2.50;;;;;;;-13.45;62.15;98729.81;4851980;29;20067;-58
2021/12/21 06:51:54;;;;;;;4.53;2.50;;;;;;;-13.98;60.34;98742.47;4848444;29;20089;-58
2021/12/21 06:54:21;;;;;;;2.80;2.22;;;;;;;-14.08;61.55;98746.91;4850707;29;20026;-59
2021/12/21 06:56:47;;;;;;;4.10;2.22;;;;;;;-14.08;61.76;98749.38;4850125;29;20026;-56
2021/12/21 06:59:13;;;;;;;4.00;2.08;;;;;;;-13.94;61.52;98757.66;4851997;29;20041;-57
2021/12/21 07:01:39;;;;;;;5.70;2.45;;;;;;;-13.88;61.72;98762.13;4851829;29;20148;-58
2021/12/21 07:04:06;;;;;;;6.25;2.53;;;;;;;-13.91;62.04;98764.44;4852052;29;20018;-58
2021/12/21 07:06:34;;;;;;;5.32;2.30;;;;;;;-13.90;59.89;98753.72;4837544;29;20105;-57
2021/12/21 07:09:30;;;;;;;4.05;2.45;;;;;;;-13.86;60.58;98778.03;4852105;29;20065;-57
2021/12/21 07:12:31;;;;;;;3.17;2.08;;;;;;;-13.83;61.38;98765.75;4830680;29;20341;-58
2021/12/21 07:20:10;;;;;;;3.42;1.95;;;;;;;-13.78;61.13;98775.97;4849532;29;20037;-57
2021/12/21 07:22:36;;;;;;;5.20;2.60;;;;;;;-13.83;60.55;98782.34;4850637;29;20196;-57
2021/12/21 07:25:03;;;;;;;3.95;2.30;;;;;;;-13.78;61.53;98781.84;4851376;29;20040;-56
2021/12/21 07:27:29;;;;;;;3.65;2.63;;;;;;;-14.08;61.00;98779.22;4851740;29;20033;-57
2021/12/21 07:29:54;;;;;;;4.35;2.20;;;;;;;-13.82;61.47;98789.00;4851658;29;20030;-58
2021/12/21 07:32:20;;;;;;;3.70;2.17;;;;;;;-13.67;63.05;98784.94;4849322;29;20026;-58
2021/12/21 07:34:45;;;;;;;4.15;2.13;;;;;;;-13.68;61.69;98772.41;4844623;29;20025;-57
2021/12/21 07:37:11;;;;;;;5.00;2.33;;;;;;;-13.55;62.48;98784.78;4851593;29;20342;-57
2021/12/21 07:39:37;;;;;;;3.38;2.50;;;;;;;-13.79;61.70;98765.19;4851677;29;20033;-57
2021/12/21 07:42:04;;;;;;;3.35;2.10;;;;;;;-13.63;61.16;98788.50;4851495;29;20342;-58
2021/12/21 07:44:30;;;;;;;3.83;2.40;;;;;;;-13.73;60.83;98782.94;4851195;29;20034;-57
2021/12/21 07:46:55;;;;;;;3.08;2.20;;;;;;;-13.73;60.99;98775.47;4831638;29;20207;-57
2021/12/21 07:49:21;;;;;;;4.57;2.50;;;;;;;-13.73;61.61;98773.00;4844868;29;20053;-58
2021/12/21 07:51:48;;;;;;;5.78;2.60;;;;;;;-13.54;59.80;98789.00;4851322;29;20042;-58
2021/12/21 07:54:15;;;;;;;6.03;2.63;;;;;;;-13.65;60.32;98772.59;4850366;29;20029;-58
2021/12/21 07:56:41;;;;;;;3.78;2.65;;;;;;;-13.67;60.82;98792.41;4851200;29;20117;-57
2021/12/21 07:59:07;;;;;;;4.35;2.78;;;;;;;-13.67;60.76;98779.97;4849066;29;20318;-58
2021/12/21 08:01:32;;;;;;;3.88;2.60;;;;;;;-13.58;60.23;98802.03;4850990;29;20089;-58
2021/12/21 08:03:59;;;;;;;4.63;2.60;;;;;;;-13.50;59.89;98802.50;4850320;29;20045;-58
2021/12/21 08:06:28;;;;;;;5.72;2.90;;;;;;;-13.48;60.62;98799.34;4850764;29;20334;-58
2021/12/21 08:08:54;;;;;;;4.95;2.53;;;;;;;-13.47;61.05;98808.50;4851080;29;20143;-57
2021/12/21 08:14:08;;;;;;;3.20;2.38;;;;;;;-13.50;60.05;98805.00;4809048;29;20048;-58
2021/12/21 08:16:34;;;;;;;2.72;2.13;;;;;;;-13.59;59.55;98806.19;4850932;29;20097;-59
2021/12/21 08:19:00;;;;;;;2.67;1.85;;;;;;;-13.65;60.34;98805.81;4848181;29;20097;-58
2021/12/21 08:21:26;;;;;;;4.00;2.45;;;;;;;-13.60;59.10;98811.06;4850695;29;20053;-58
2021/12/21 08:23:53;;;;;;;3.50;2.50;;;;;;;-13.68;59.35;98782.38;4845274;29;20026;-56
2021/12/21 08:26:18;;;;;;;4.25;2.90;;;;;;;-13.61;60.30;98780.34;4850448;29;20276;-58
2021/12/21 08:28:44;;;;;;;3.25;2.22;;;;;;;-13.78;59.45;98788.41;4850829;29;20026;-57
2021/12/21 08:31:12;;;;;;;5.28;2.50;;;;;;;-13.58;59.50;98788.00;4850942;29;20033;-56
2021/12/21 08:33:40;;;;;;;3.22;2.40;;;;;;;-13.63;60.48;98786.00;4850506;29;20064;-57
2021/12/21 08:36:07;;;;;;;4.03;2.42;;;;;;;-13.66;59.66;98800.75;4850867;29;20061;-57
2021/12/21 08:38:36;;;;;;;3.42;2.20;;;;;;;-13.45;60.85;98798.66;4850288;29;20056;-57
2021/12/21 08:41:02;;;;;;;3.88;2.10;;;;;;;-13.56;61.86;98786.44;4850609;29;20307;-58
2021/12/21 08:43:31;;;;;;;3.63;2.63;;;;;;;-13.63;59.59;98783.50;4834105;29;20029;-56
2021/12/21 08:45:56;;;;;;;5.85;2.63;;;;;;;-13.72;59.56;98793.78;4850618;29;20322;-57
2021/12/21 08:48:23;;;;;;;6.65;2.85;;;;;;;-13.77;61.64;98808.41;4844885;29;20030;-57
2021/12/21 08:50:53;;;;;;;6.15;2.97;;;;;;;-13.82;58.83;98789.88;4850480;29;20049;-57
2021/12/21 08:53:18;;;;;;;3.35;2.40;;;;;;;-13.65;60.58;98802.44;4850443;29;20101;-57
2021/12/21 08:55:44;;;;;;;6.53;2.80;;;;;;;-13.50;61.69;98788.44;4850719;29;20150;-56
2021/12/21 08:58:12;;;;;;;4.93;2.75;;;;;;;-13.38;60.74;98809.06;4850673;29;20314;-57
2021/12/21 09:00:38;;;;;;;4.95;2.53;;;;;;;-13.55;60.08;98807.19;4833681;29;20057;-57
2021/12/21 09:03:05;;;;;;;3.58;2.28;;;;;;;-13.58;60.50;98797.06;4850209;29;20038;-57
2021/12/21 09:05:31;;;;;;;6.18;2.60;;;;;;;-13.31;60.38;98796.94;4834456;29;20030;-57
2021/12/21 09:07:59;;;;;;;5.82;2.83;;;;;;;-13.26;59.97;98798.06;4832705;29;20353;-57
2021/12/21 09:10:27;;;;;;;3.45;2.47;;;;;;;-13.30;59.92;98799.50;4850746;29;20040;-58
2021/12/21 09:12:53;;;;;;;3.95;2.55;;;;;;;-13.40;60.73;98805.63;4850301;29;20427;-57
2021/12/21 09:15:20;;;;;;;3.65;2.13;;;;;;;-13.42;61.11;98789.75;4849885;29;20078;-57
2021/12/21 09:17:47;;;;;;;3.60;2.72;;;;;;;-13.34;60.33;98791.81;4849875;29;20030;-58
2021/12/21 09:20:15;;;;;;;3.50;2.40;;;;;;;-13.61;60.83;98723.09;4853419;29;20030;-58
2021/12/21 09:22:42;;;;;;;3.80;2.67;;;;;;;-13.20;60.41;98809.22;4853887;29;20125;-58
2021/12/21 09:25:08;;;;;;;3.33;2.53;;;;;;;-13.12;60.47;98809.69;4853705;29;20279;-58
2021/12/21 09:27:34;;;;;;;4.97;3.20;;;;;;;-13.30;59.59;98806.97;4853521;29;20050;-58
2021/12/21 09:30:00;;;;;;;12.68;2.80;;;;;;;-13.25;60.89;98809.72;4853786;29;20038;-58
2021/12/21 09:32:26;;;;;;;5.10;2.50;;;;;;;-13.10;60.37;98817.25;4853651;29;20045;-58
2021/12/21 09:34:52;;;;;;;3.22;2.38;;;;;;;-13.25;60.12;98817.19;4853842;29;20093;-58
2021/12/21 09:37:20;;;;;;;7.63;2.83;;;;;;;-13.19;59.52;98820.06;4854318;29;20050;-58
2021/12/21 09:39:49;;;;;;;2.78;2.38;;;;;;;-13.02;60.83;98814.41;4853485;29;20085;-58
2021/12/21 09:42:17;;;;;;;6.07;2.72;;;;;;;-13.10;59.53;98838.03;4853523;29;20040;-57
2021/12/21 09:44:44;;;;;;;3.33;2.17;;;;;;;-13.05;59.94;98819.22;4836718;29;20292;-58
2021/12/21 09:47:11;;;;;;;4.00;2.25;;;;;;;-13.12;58.59;98817.16;4836928;29;20022;-57
2021/12/21 09:49:38;;;;;;;5.88;2.90;;;;;;;-13.07;59.05;98823.25;4853638;29;20065;-57
2021/12/21 09:52:06;;;;;;;4.43;2.40;;;;;;;-13.65;58.96;98731.16;4852686;29;20305;-59
2021/12/21 09:54:36;;;;;;;3.53;2.50;;;;;;;-12.96;59.67;98818.03;4853632;29;20065;-57
2021/12/21 09:57:02;;;;;;;6.03;2.85;;;;;;;-12.89;59.71;98805.16;4854281;29;20098;-58
2021/12/21 09:59:28;;;;;;;4.88;2.35;;;;;;;-12.90;59.03;98803.44;4853440;29;20294;-57
2021/12/21 10:01:56;;;;;;;4.57;2.63;;;;;;;-13.08;59.65;98809.09;4836671;29;20108;-58
2021/12/21 10:04:23;;;;;;;4.70;2.97;;;;;;;-12.91;59.66;98806.69;4852957;29;20029;-58
2021/12/21 10:06:51;;;;;;;5.18;3.00;;;;;;;-12.96;59.27;98813.91;4851796;29;20048;-58
2021/12/21 10:09:19;;;;;;;4.47;2.60;;;;;;;-13.04;59.66;98801.03;4852933;29;20387;-58
2021/12/21 10:11:48;;;;;;;6.18;3.25;;;;;;;-12.96;59.36;98815.56;4853109;29;20025;-57
2021/12/21 10:14:18;;;;;;;5.95;2.67;;;;;;;-12.85;59.28;98812.03;4853054;29;20033;-58
2021/12/21 10:16:47;;;;;;;4.82;3.05;;;;;;;-12.96;59.30;98820.53;4853078;29;20038;-59
2021/12/21 10:19:24;;;;;;;5.03;2.50;;;;;;;-13.01;59.41;98822.75;4844281;29;20026;-58
2021/12/21 10:21:51;;;;;;;4.25;2.88;;;;;;;-13.47;58.17;98733.84;4852014;29;20113;-59
2021/12/21 10:24:28;;;;;;;6.28;2.90;;;;;;;-12.86;59.98;98818.63;4852545;29;20034;-58
2021/12/21 10:27:07;;;;;;;5.45;2.75;;;;;;;-13.27;60.59;98742.41;4851912;29;20041;-59
2021/12/21 10:30:01;;;;;;;5.60;2.95;;;;;;;-12.92;59.68;98810.81;4852515;29;20033;-59
2021/12/21 10:32:32;;;;;;;7.40;3.55;;;;;;;-13.49;59.62;98732.91;4853095;29;20038;-57
2021/12/21 10:35:03;;;;;;;4.82;2.90;;;;;;;-13.10;58.51;98828.06;4852599;29;20394;-58
2021/12/21 10:37:32;;;;;;;5.97;3.58;;;;;;;-13.30;58.79;98783.72;4852503;29;20084;-58
2021/12/21 10:40:07;;;;;;;5.32;2.97;;;;;;;-12.97;60.03;98827.13;4834766;29;20025;-58
2021/12/21 10:42:45;;;;;;;3.95;2.83;;;;;;;-13.00;59.98;98826.97;4851178;29;20226;-59
2021/12/21 10:45:11;;;;;;;6.85;3.13;;;;;;;-12.91;60.23;98826.63;4852424;29;20041;-58
2021/12/21 10:47:37;;;;;;;5.50;3.35;;;;;;;-13.05;59.65;98829.19;4852388;29;20033;-59
2021/12/21 10:50:05;;;;;;;6.40;3.33;;;;;;;-12.96;59.35;98841.31;4852508;29;20036;-58
2021/12/21 10:52:31;;;;;;;5.13;3.20;;;;;;;-13.04;59.28;98827.56;4852279;29;20093;-58
2021/12/21 10:54:57;;;;;;;6.95;2.88;;;;;;;-13.18;58.73;98824.28;4852239;29;20030;-58
2021/12/21 10:57:29;;;;;;;5.70;3.03;;;;;;;-13.64;59.46;98761.88;4852321;29;20251;-59
2021/12/21 10:59:58;;;;;;;6.13;3.38;;;;;;;-13.18;60.38;98819.31;4836142;29;20033;-60
2021/12/21 11:02:30;;;;;;;5.47;3.65;;;;;;;-13.39;59.20;98799.88;4851233;29;20022;-57
2021/12/21 11:05:01;;;;;;;8.75;3.67;;;;;;;-13.21;58.99;98829.06;4852341;29;20038;-59
2021/12/21 11:10:32;;;;;;;6.30;3.55;;;;;;;-13.14;60.88;98843.59;4852057;29;20259;-58
2021/12/21 11:13:10;;;;;;;6.25;3.88;;;;;;;-13.15;60.96;98834.44;4851840;29;20033;-59
2021/12/21 11:15:47;;;;;;;6.43;3.88;;;;;;;-13.18;61.08;98826.78;4851862;29;20042;-58
2021/12/21 11:18:16;;;;;;;10.70;3.03;;;;;;;-13.01;60.27;98837.69;4857848;29;20413;-58
2021/12/21 11:20:45;;;;;;;7.20;3.40;;;;;;;-13.06;58.71;98851.53;4850988;29;20034;-59
2021/12/21 11:23:15;;;;;;;8.02;4.05;;;;;;;-13.28;58.84;98854.38;4848068;29;20033;-58
2021/12/21 11:25:43;;;;;;;7.72;3.63;;;;;;;-13.19;61.24;98820.91;4851233;29;20080;-59
2021/12/21 11:28:13;;;;;;;7.82;3.50;;;;;;;-13.35;62.18;98785.09;4834468;29;20064;-59
2021/12/21 11:30:41;;;;;;;6.82;3.22;;;;;;;-13.03;61.52;98822.66;4851487;29;20081;-59
2021/12/21 11:33:07;;;;;;;6.70;3.20;;;;;;;-12.95;60.86;98839.69;4851693;29;20049;-59
2021/12/21 11:38:08;;;;;;;6.40;3.70;;;;;;;-13.41;60.19;98768.19;4851224;29;20046;-59
2021/12/21 11:40:42;;;;;;;5.40;3.17;;;;;;;-13.10;60.11;98828.06;4852358;29;20322;-59
2021/12/21 11:43:46;;;;;;;9.38;4.05;;;;;;;-12.84;60.67;98856.09;4819657;29;20026;-58
2021/12/21 11:46:15;;;;;;;7.35;3.40;;;;;;;-13.08;60.20;98829.03;4834925;29;20105;-59
2021/12/21 11:48:46;;;;;;;4.60;3.13;;;;;;;-12.87;59.83;98856.81;4834875;29;20022;-57
2021/12/21 11:51:13;;;;;;;4.95;3.22;;;;;;;-12.93;59.77;98861.41;4851337;29;20030;-58
2021/12/21 11:53:39;;;;;;;5.57;3.28;;;;;;;-12.95;59.98;98867.09;4851283;29;20030;-58
2021/12/21 11:56:07;;;;;;;5.28;3.53;;;;;;;-13.03;60.91;98837.59;4835052;29;20034;-59
2021/12/21 11:58:39;;;;;;;5.50;3.53;;;;;;;-12.91;60.72;98872.34;4835476;29;20045;-59
2021/12/21 12:01:14;;;;;;;7.03;3.67;;;;;;;-12.96;60.36;98860.41;4850761;29;20038;-59
2021/12/21 12:03:46;;;;;;;7.85;3.55;;;;;;;-12.89;61.49;98884.91;4834494;29;20046;-58
2021/12/21 12:06:15;;;;;;;6.20;3.95;;;;;;;-12.88;61.70;98866.66;4860862;29;20097;-59
2021/12/21 12:09:02;;;;;;;7.65;3.80;;;;;;;-13.27;61.35;98823.75;4856763;29;20117;-58
2021/12/21 12:11:37;;;;;;;6.72;3.35;;;;;;;-12.80;61.45;98892.03;4849566;29;20033;-59
2021/12/21 12:14:20;;;;;;;7.03;3.80;;;;;;;-13.09;60.99;98904.53;4850543;29;20106;-59
2021/12/21 12:16:55;;;;;;;8.10;4.07;;;;;;;-13.69;60.84;98821.34;4847332;29;20346;-59
2021/12/21 12:19:27;;;;;;;6.70;3.75;;;;;;;-13.54;61.02;98828.84;4848305;29;20248;-58
2021/12/21 12:21:56;;;;;;;8.55;4.30;;;;;;;-13.20;61.35;98896.41;4850509;29;20245;-57
2021/12/21 12:24:26;;;;;;;7.30;4.43;;;;;;;-13.55;60.37;98859.47;4849422;29;20078;-59
2021/12/21 12:27:02;;;;;;;8.48;3.90;;;;;;;-13.70;60.74;98854.44;4847965;29;20358;-58
2021/12/21 12:29:28;;;;;;;6.82;4.05;;;;;;;-13.19;61.17;98925.53;4834074;29;20037;-58
2021/12/21 12:32:06;;;;;;;8.27;3.50;;;;;;;-13.13;61.84;98925.03;4850183;29;20358;-58
2021/12/21 12:34:36;;;;;;;7.03;3.65;;;;;;;-13.25;62.44;98914.31;4845016;29;20041;-59
2021/12/21 12:37:23;;;;;;;6.43;4.15;;;;;;;-13.21;61.08;98928.69;4848057;29;20342;-58
2021/12/21 12:39:55;;;;;;;6.85;4.22;;;;;;;-13.27;60.73;98945.78;4848488;29;20171;-58
2021/12/21 12:42:26;;;;;;;7.22;3.70;;;;;;;-13.62;62.47;98859.88;4850290;29;20206;-58
2021/12/21 12:45:27;;;;;;;;;;;;;;;-13.24;60.60;98933.50;4831749;29;20018;-58